Aérodrome :
LOGIN :

S'inscrire | Disclaimer

   EN    FR    IT 

 










Légende :    VFR   VFR Marginal   IFR   IFR Intensif   IFR Très Intensif
Visi : 
Plafond : 
>= 8 km
>= 3000ft
5 à 8 km
1000 à 3000 ft
1500m à 5 km
500 à 1000 ft
800 à 1500m
200 à 500 ft
< 800m
< 200 ft
Symboles :   Orages  Brouillard  Fortes neiges  Fortes précipitations  Vent > 20 kt
SIGMETs :   Divers  Orages  Givrage  Turbulence  Onde Orograph.  Cendres Volcan.






- Altitude de l'aérodrome : 137 ft


LIPS - Istrana AFB Treviso

DERNIER METAR :
  • 060455Z /////KT 9999 BKN030 04/03 Q1025 RMK BKN VIS MIN 9999 WIND THR26 00000KT WIND THR08 00000KT BLU

METARs EXPIRÉS :
  • 060355Z /////KT 9999 BKN035 03/03 Q1025 RMK BKN VIS MIN 9999 WIND THR26 00000KT WIND THR08 00000KT BLU
  • 060255Z /////KT 9999 BKN035 03/02 Q1025 RMK BKN VIS MIN 9999 WIND THR26 00000KT WIND THR08 00000KT BLU

TAF TAF LIPS
Valide du 06 à 00h jusqu'au 06 à 09h UTC


052300Z 0600/0609 VRB03KT CAVOK
PROB30
TEMPO 0600/0606 5000 BR NSC



MET'MAP, la Météo Aéronautique d'un coup d'oeil ! - Copyright ORBIFLY Décembre 2007 - Disclaimer

ORBIFLY MET'MAP TEAM :

Programmation & Développement : Alexandra Zaïnal
Sur une idée originale de : Baudouin d'Aumeries
Assistance à la programmation : Marc-Olivier Méhu
Soutien technique & logistique : Manuel Goepfert

Contact : metmap@orbifly.com




SOURCES & CREDITS :

   NOAA